Time;durP1;ratioP1;P1;durP2;ratioP2;P2;SDS_P1;SDS_P2;PMS_P1;PMS_P2;Temp;Humidity;BMP_temperature;BMP_pressure;BME280_temperature;BME280_humidity;BME280_pressure;Samples;Min_cycle;Max_cycle;Signal;HPM_P1;HPM_P2
2023/01/17 00:00:35;;;;;;;1.73;1.33;;;-0.90;99.90;;;;;;5016368;28;20049;-78
2023/01/17 00:03:03;;;;;;;1.45;1.23;;;-0.90;99.90;;;;;;5017763;28;20049;-78
2023/01/17 00:11:00;;;;;;;2.30;1.10;;;-1.00;99.90;;;;;;5020679;28;20247;-78
2023/01/17 00:13:27;;;;;;;2.60;1.58;;;-1.00;99.90;;;;;;5018551;28;20421;-78
2023/01/17 00:15:54;;;;;;;1.80;1.20;;;-1.10;99.90;;;;;;5009677;28;20057;-78
2023/01/17 00:18:21;;;;;;;1.60;1.10;;;-1.10;99.90;;;;;;5012143;28;20057;-78
2023/01/17 00:26:18;;;;;;;2.33;1.48;;;-1.00;99.90;;;;;;5019366;28;20497;-78
2023/01/17 01:35:48;;;;;;;3.13;1.50;;;-1.30;99.90;;;;;;5004965;28;20049;-78
2023/01/17 01:38:15;;;;;;;2.40;1.10;;;-1.40;99.90;;;;;;4995391;28;20053;-78
2023/01/17 01:40:47;;;;;;;1.98;1.20;;;-1.30;99.90;;;;;;5014374;28;20200;-78
2023/01/17 01:43:15;;;;;;;1.90;1.10;;;-1.30;99.90;;;;;;5021081;28;20077;-78
2023/01/17 01:45:45;;;;;;;1.52;1.20;;;-1.30;99.90;;;;;;5006658;28;20553;-78
2023/01/17 01:48:21;;;;;;;2.10;1.27;;;-1.30;99.90;;;;;;5004149;28;20057;-78
2023/01/17 01:50:48;;;;;;;1.95;1.25;;;-1.30;99.90;;;;;;5021314;28;20049;-78
2023/01/17 01:53:15;;;;;;;2.25;1.30;;;-1.30;99.90;;;;;;5021277;28;20071;-78
2023/01/17 01:55:42;;;;;;;1.48;1.00;;;-1.40;99.90;;;;;;5022065;28;20045;-78
2023/01/17 01:58:14;;;;;;;1.58;1.30;;;-1.40;99.90;;;;;;5004256;28;20132;-78
2023/01/17 02:00:40;;;;;;;1.55;1.00;;;-1.40;99.90;;;;;;4988351;28;20084;-78
2023/01/17 02:03:28;;;;;;;1.33;1.10;;;-1.50;99.90;;;;;;5004788;28;20049;-78
2023/01/17 02:05:56;;;;;;;1.67;1.30;;;-1.50;99.90;;;;;;5015365;28;20049;-78
2023/01/17 02:08:23;;;;;;;1.77;1.10;;;-1.50;99.90;;;;;;5004149;28;20064;-78
2023/01/17 02:10:49;;;;;;;2.17;1.42;;;-1.50;99.90;;;;;;5005394;28;20057;-77
2023/01/17 02:13:17;;;;;;;1.90;1.27;;;-1.40;99.90;;;;;;5010149;28;20135;-78
2023/01/17 02:15:55;;;;;;;2.50;1.40;;;-1.40;99.90;;;;;;5020621;28;20112;-78
2023/01/17 02:18:34;;;;;;;1.92;1.38;;;-1.50;99.90;;;;;;5020855;28;20133;-78
2023/01/17 02:21:21;;;;;;;1.52;1.20;;;-1.50;99.90;;;;;;5020688;28;20053;-78
2023/01/17 02:24:25;;;;;;;1.48;1.08;;;-1.50;99.90;;;;;;5020556;28;20068;-78
2023/01/17 02:26:56;;;;;;;2.05;1.15;;;-1.60;99.90;;;;;;5020596;28;20045;-78
2023/01/17 02:29:32;;;;;;;1.92;1.48;;;-1.50;99.90;;;;;;5004637;28;20129;-78
2023/01/17 02:32:09;;;;;;;1.83;1.35;;;-1.60;99.90;;;;;;5012619;28;20436;-77
2023/01/17 02:34:45;;;;;;;2.28;1.20;;;-1.70;99.90;;;;;;5023958;28;20136;-78
2023/01/17 02:37:27;;;;;;;1.33;1.05;;;-1.70;99.90;;;;;;5024593;28;20053;-78
2023/01/17 02:39:59;;;;;;;1.33;0.83;;;-1.70;99.90;;;;;;5007363;28;20054;-78
2023/01/17 02:42:29;;;;;;;1.38;1.00;;;-1.70;99.90;;;;;;4975113;28;20049;-77
2023/01/17 02:44:55;;;;;;;1.95;1.23;;;-1.80;99.90;;;;;;4975755;28;20065;-78
2023/01/17 02:47:24;;;;;;;1.45;1.10;;;-1.80;99.90;;;;;;5008370;28;20136;-77
2023/01/17 02:49:52;;;;;;;1.67;0.90;;;-1.80;99.90;;;;;;5008173;28;20064;-78
2023/01/17 02:52:34;;;;;;;1.60;1.20;;;-1.80;99.90;;;;;;5025574;28;20085;-78
2023/01/17 02:55:14;;;;;;;2.80;1.80;;;-1.80;99.90;;;;;;5026902;28;20091;-78
2023/01/17 02:58:07;;;;;;;1.60;1.27;;;-1.90;99.90;;;;;;5010208;28;20485;-78
2023/01/17 03:00:46;;;;;;;1.42;1.05;;;-1.90;99.90;;;;;;5026723;28;20144;-78
2023/01/17 03:03:20;;;;;;;1.38;1.10;;;-1.90;99.90;;;;;;5016398;28;20107;-78
2023/01/17 03:06:10;;;;;;;1.75;1.27;;;-1.80;99.90;;;;;;4991220;28;20110;-78
2023/01/17 03:08:39;;;;;;;2.15;1.50;;;-1.80;99.90;;;;;;4990126;28;20066;-78
2023/01/17 03:11:08;;;;;;;1.75;1.27;;;-1.80;99.90;;;;;;5007386;28;20041;-77
2023/01/17 03:13:35;;;;;;;1.35;1.10;;;-1.80;99.90;;;;;;5018924;28;20136;-78
2023/01/17 03:16:04;;;;;;;2.35;1.20;;;-1.80;99.90;;;;;;5025809;28;20054;-78
2023/01/17 03:18:31;;;;;;;2.35;1.33;;;-1.80;99.90;;;;;;4992706;28;20152;-77
2023/01/17 03:20:58;;;;;;;3.35;1.92;;;-1.80;99.90;;;;;;5026789;28;20118;-78
2023/01/17 03:23:24;;;;;;;1.83;1.27;;;-1.80;99.90;;;;;;5019084;28;20072;-77
2023/01/17 03:25:51;;;;;;;2.35;1.60;;;-1.80;99.90;;;;;;5026915;28;20054;-77
2023/01/17 03:28:18;;;;;;;1.60;1.30;;;-1.80;99.90;;;;;;5008999;28;20053;-78
2023/01/17 03:30:44;;;;;;;2.00;1.40;;;-1.80;99.90;;;;;;5023764;28;20073;-78
2023/01/17 03:33:11;;;;;;;2.55;1.30;;;-1.80;99.90;;;;;;5027030;28;20061;-78
2023/01/17 03:35:38;;;;;;;1.15;1.00;;;-1.80;99.90;;;;;;5025651;28;20064;-78
2023/01/17 03:38:05;;;;;;;2.47;1.20;;;-1.70;99.90;;;;;;5026218;28;20484;-78
2023/01/17 03:40:32;;;;;;;1.52;1.20;;;-1.70;99.90;;;;;;5024953;28;20061;-78
2023/01/17 03:42:58;;;;;;;2.00;1.50;;;-1.60;99.90;;;;;;5016384;28;20085;-77
2023/01/17 03:45:25;;;;;;;1.92;1.33;;;-1.60;99.90;;;;;;5026193;28;20148;-78
2023/01/17 03:47:52;;;;;;;1.08;0.98;;;-1.60;99.90;;;;;;5025108;28;20652;-78
2023/01/17 03:50:19;;;;;;;1.42;1.25;;;-1.70;99.90;;;;;;5020694;28;20068;-78
2023/01/17 03:52:46;;;;;;;2.05;1.27;;;-1.70;99.90;;;;;;5010185;28;20191;-79
2023/01/17 03:55:12;;;;;;;2.08;1.17;;;-1.70;99.90;;;;;;5025714;28;20136;-79
2023/01/17 03:57:39;;;;;;;2.88;1.15;;;-1.80;99.90;;;;;;5025973;28;20045;-77
2023/01/17 04:00:08;;;;;;;1.63;1.10;;;-1.80;99.90;;;;;;5016136;28;20042;-78
2023/01/17 04:02:35;;;;;;;2.72;2.05;;;-1.80;99.90;;;;;;5008945;28;20140;-77
2023/01/17 04:05:02;;;;;;;1.95;1.40;;;-1.80;99.90;;;;;;5023805;28;20049;-79
2023/01/17 04:07:29;;;;;;;1.63;1.20;;;-1.80;99.90;;;;;;5025038;28;20133;-78
2023/01/17 04:09:55;;;;;;;1.50;1.27;;;-1.80;99.90;;;;;;5024239;28;20049;-78
2023/01/17 04:12:22;;;;;;;1.60;1.23;;;-1.90;99.90;;;;;;5024147;28;20150;-78
2023/01/17 04:14:49;;;;;;;1.65;1.20;;;-1.90;99.90;;;;;;5024649;28;20061;-77
2023/01/17 04:17:17;;;;;;;1.05;0.95;;;-1.80;99.90;;;;;;5008360;28;20227;-78
2023/01/17 04:19:43;;;;;;;1.52;1.20;;;-1.90;99.90;;;;;;4985115;28;20088;-78
2023/01/17 04:22:10;;;;;;;1.90;1.27;;;-1.80;99.90;;;;;;4988723;28;20383;-78
2023/01/17 04:24:37;;;;;;;1.73;1.15;;;-1.80;99.90;;;;;;5023335;28;20135;-78
2023/01/17 04:27:04;;;;;;;2.17;1.10;;;-1.80;99.90;;;;;;5026020;28;20049;-78
2023/01/17 04:29:31;;;;;;;1.67;1.27;;;-1.90;99.90;;;;;;5024876;28;20089;-78
2023/01/17 04:31:57;;;;;;;1.42;1.05;;;-1.90;99.90;;;;;;5025655;28;20539;-77
2023/01/17 04:34:24;;;;;;;1.80;1.10;;;-1.90;99.90;;;;;;5025227;28;20049;-77
2023/01/17 04:36:51;;;;;;;1.90;1.20;;;-2.00;99.90;;;;;;5025670;28;20473;-77
2023/01/17 04:39:17;;;;;;;1.52;1.40;;;-2.00;99.90;;;;;;5023764;28;20417;-78
2023/01/17 04:41:44;;;;;;;1.00;0.90;;;-2.00;99.90;;;;;;5007497;28;20600;-78
2023/01/17 04:44:11;;;;;;;1.95;1.20;;;-2.00;99.90;;;;;;5026142;28;20057;-78
2023/01/17 04:46:37;;;;;;;1.40;1.10;;;-2.10;99.90;;;;;;5024038;28;20678;-78
2023/01/17 04:49:04;;;;;;;1.83;1.38;;;-2.10;99.90;;;;;;5024766;28;20279;-78
2023/01/17 04:51:31;;;;;;;2.05;1.42;;;-2.10;99.90;;;;;;5024374;28;20050;-78
2023/01/17 04:53:58;;;;;;;1.27;1.02;;;-2.10;99.90;;;;;;5024140;28;20041;-77
2023/01/17 04:56:25;;;;;;;1.90;1.25;;;-2.10;99.90;;;;;;5005461;28;20533;-78
2023/01/17 04:58:51;;;;;;;2.28;1.60;;;-2.10;99.90;;;;;;4988427;28;20049;-78
2023/01/17 05:01:18;;;;;;;1.85;1.30;;;-2.10;99.90;;;;;;5005674;28;20125;-78
2023/01/17 05:03:45;;;;;;;2.75;1.85;;;-2.20;99.90;;;;;;5015574;28;20045;-77
2023/01/17 05:06:12;;;;;;;1.80;1.02;;;-2.30;99.90;;;;;;5010629;28;20085;-78
2023/01/17 05:08:39;;;;;;;1.95;1.30;;;-2.40;99.90;;;;;;5004985;28;20100;-77
2023/01/17 05:11:05;;;;;;;1.30;1.05;;;-2.50;99.90;;;;;;5004485;28;20041;-78
2023/01/17 05:13:32;;;;;;;1.60;1.13;;;-2.50;99.90;;;;;;5013527;28;20059;-77
2023/01/17 05:15:59;;;;;;;2.00;1.42;;;-2.40;99.90;;;;;;5025473;28;20045;-78
2023/01/17 05:18:26;;;;;;;1.77;1.00;;;-2.40;99.90;;;;;;5025341;28;20049;-78
2023/01/17 05:20:53;;;;;;;1.77;1.15;;;-2.50;99.90;;;;;;5016758;28;20112;-78
2023/01/17 05:23:19;;;;;;;2.53;1.65;;;-2.50;99.90;;;;;;5011848;28;20493;-77
2023/01/17 05:25:46;;;;;;;1.48;1.02;;;-2.50;99.90;;;;;;5024215;28;20087;-78
2023/01/17 05:28:13;;;;;;;1.75;1.00;;;-2.40;99.90;;;;;;5023736;28;20054;-78
2023/01/17 05:30:40;;;;;;;2.15;1.30;;;-2.50;99.90;;;;;;5007255;28;20084;-77
2023/01/17 05:33:08;;;;;;;2.17;1.27;;;-2.50;99.90;;;;;;4994624;28;20056;-78
2023/01/17 05:35:35;;;;;;;2.13;1.40;;;-2.60;99.90;;;;;;5006805;28;20557;-77
2023/01/17 05:38:02;;;;;;;2.80;1.20;;;-2.60;99.90;;;;;;5023378;28;20053;-77
2023/01/17 05:40:30;;;;;;;1.92;1.30;;;-2.70;99.90;;;;;;5019806;28;20046;-77
2023/01/17 05:42:58;;;;;;;2.80;1.45;;;-2.70;99.90;;;;;;5036555;28;20564;-77
2023/01/17 05:45:26;;;;;;;1.63;1.00;;;-2.70;99.90;;;;;;5010888;28;20046;-78
2023/01/17 05:47:53;;;;;;;2.42;1.23;;;-2.70;99.90;;;;;;5025599;28;20088;-77
2023/01/17 05:50:25;;;;;;;2.42;1.17;;;-2.80;99.90;;;;;;5023453;28;20057;-77
2023/01/17 05:52:54;;;;;;;1.35;1.10;;;-2.80;99.90;;;;;;5024529;28;20410;-78
2023/01/17 05:55:20;;;;;;;1.85;1.30;;;-2.80;99.90;;;;;;5008414;28;20057;-77
2023/01/17 05:57:47;;;;;;;2.70;1.42;;;-2.80;99.90;;;;;;5019164;28;20053;-78
2023/01/17 06:00:15;;;;;;;2.10;1.30;;;-2.90;99.90;;;;;;5024827;28;20060;-77
2023/01/17 06:02:42;;;;;;;2.13;1.30;;;-2.80;99.90;;;;;;5003728;28;20129;-77
2023/01/17 06:05:09;;;;;;;2.22;1.40;;;-2.80;99.90;;;;;;4988245;28;20057;-77
2023/01/17 06:07:36;;;;;;;1.90;1.33;;;-2.90;99.90;;;;;;5018124;28;20088;-76
2023/01/17 06:10:04;;;;;;;2.50;1.30;;;-2.80;99.90;;;;;;5013646;28;20128;-77
2023/01/17 06:12:31;;;;;;;1.52;1.27;;;-2.80;99.90;;;;;;5000251;28;20742;-77
2023/01/17 06:14:57;;;;;;;2.15;1.45;;;-2.80;99.90;;;;;;4997188;28;20060;-77
2023/01/17 06:17:24;;;;;;;2.78;1.25;;;-2.80;99.90;;;;;;4997788;28;20088;-78
2023/01/17 06:19:51;;;;;;;1.90;1.40;;;-2.80;99.90;;;;;;5013760;28;20053;-77
2023/01/17 06:22:17;;;;;;;1.60;1.50;;;-2.80;99.90;;;;;;5015145;28;20042;-76
2023/01/17 06:24:44;;;;;;;1.95;1.20;;;-2.80;99.90;;;;;;5006412;28;20873;-77
2023/01/17 06:27:11;;;;;;;1.65;1.23;;;-2.80;99.90;;;;;;5015168;28;20560;-76
2023/01/17 06:29:38;;;;;;;1.95;1.40;;;-2.80;99.90;;;;;;5006023;28;20069;-76
2023/01/17 06:32:04;;;;;;;1.90;1.50;;;-2.90;99.90;;;;;;5022831;28;20050;-77
2023/01/17 06:34:31;;;;;;;2.17;1.50;;;-2.90;99.90;;;;;;5021492;28;20562;-77
2023/01/17 06:36:58;;;;;;;1.30;1.00;;;-2.90;99.90;;;;;;5006932;28;20148;-78
2023/01/17 06:39:24;;;;;;;2.38;1.40;;;-3.00;99.90;;;;;;5024344;28;20148;-77
2023/01/17 06:41:52;;;;;;;1.88;1.30;;;-2.90;99.90;;;;;;5013294;28;20050;-77
2023/01/17 06:44:18;;;;;;;2.75;1.60;;;-2.90;99.90;;;;;;5018281;28;20064;-77
2023/01/17 06:46:46;;;;;;;2.67;1.55;;;-2.90;99.90;;;;;;5016201;28;20050;-77
2023/01/17 06:49:13;;;;;;;2.15;1.33;;;-3.00;99.90;;;;;;5017278;28;20068;-77
2023/01/17 06:51:40;;;;;;;1.85;1.40;;;-3.00;99.90;;;;;;4999268;28;20060;-76
2023/01/17 06:54:09;;;;;;;2.15;1.60;;;-3.00;99.90;;;;;;5016856;28;20057;-78
2023/01/17 06:56:36;;;;;;;2.08;1.38;;;-3.00;99.90;;;;;;5018168;28;20148;-77
2023/01/17 06:59:03;;;;;;;2.05;1.30;;;-3.00;99.90;;;;;;5016679;28;20655;-77
2023/01/17 07:01:30;;;;;;;2.75;1.38;;;-3.00;99.90;;;;;;4993622;28;20380;-76
2023/01/17 07:03:57;;;;;;;2.08;1.13;;;-3.10;99.90;;;;;;5013673;28;20910;-76
2023/01/17 07:06:27;;;;;;;1.90;1.25;;;-3.10;99.90;;;;;;5008267;28;20109;-76
2023/01/17 07:08:55;;;;;;;1.73;1.08;;;-3.10;99.90;;;;;;5012746;28;20063;-77
2023/01/17 07:11:22;;;;;;;1.83;1.08;;;-3.10;99.90;;;;;;5004856;28;20049;-76
2023/01/17 07:13:50;;;;;;;1.98;1.40;;;-3.20;99.90;;;;;;5013376;28;20132;-77
2023/01/17 07:16:16;;;;;;;2.25;1.70;;;-3.20;99.90;;;;;;5016133;28;20156;-76
2023/01/17 07:18:43;;;;;;;2.28;1.60;;;-3.20;99.90;;;;;;5017211;28;20169;-76
2023/01/17 07:21:14;;;;;;;1.38;1.27;;;-3.30;99.90;;;;;;5014455;28;20782;-76
2023/01/17 07:23:41;;;;;;;2.42;1.40;;;-3.30;99.90;;;;;;5010167;28;20465;-77
2023/01/17 07:26:08;;;;;;;1.95;1.45;;;-3.30;99.90;;;;;;5015067;28;20045;-76
2023/01/17 07:28:35;;;;;;;1.50;1.25;;;-3.30;99.90;;;;;;4999449;28;20061;-77
2023/01/17 07:31:07;;;;;;;3.20;1.50;;;-3.20;99.90;;;;;;5016258;28;20433;-77
2023/01/17 07:33:34;;;;;;;1.73;1.40;;;-3.10;99.90;;;;;;5009091;28;20069;-76
2023/01/17 07:36:05;;;;;;;1.55;1.35;;;-3.10;99.90;;;;;;4999261;28;20080;-77
2023/01/17 07:38:32;;;;;;;1.75;1.33;;;-3.10;99.90;;;;;;5012242;28;20892;-76
2023/01/17 07:40:59;;;;;;;2.20;1.33;;;-3.10;99.90;;;;;;5013789;28;20057;-75
2023/01/17 07:43:25;;;;;;;2.25;1.45;;;-3.20;99.90;;;;;;5016072;28;20492;-75
2023/01/17 07:45:52;;;;;;;1.50;1.27;;;-3.20;99.90;;;;;;5015630;28;20167;-75
2023/01/17 07:48:21;;;;;;;1.13;1.00;;;-3.20;99.90;;;;;;4983077;28;20140;-75
2023/01/17 07:50:55;;;;;;;1.48;1.20;;;-3.10;99.90;;;;;;5013540;28;20420;-75
2023/01/17 07:53:26;;;;;;;2.55;1.42;;;-3.10;99.90;;;;;;5011855;28;20127;-75
2023/01/17 07:55:52;;;;;;;1.35;1.17;;;-3.10;99.90;;;;;;4976097;28;20077;-76
2023/01/17 07:58:19;;;;;;;1.45;1.10;;;-3.10;99.90;;;;;;5007060;28;20058;-75
2023/01/17 08:00:46;;;;;;;2.00;1.38;;;-3.00;99.90;;;;;;5005563;28;20557;-75
2023/01/17 08:03:15;;;;;;;2.10;1.33;;;-3.00;99.90;;;;;;5006146;28;20239;-76
2023/01/17 08:05:42;;;;;;;1.40;1.20;;;-3.00;99.90;;;;;;5002018;28;20103;-76
2023/01/17 08:08:09;;;;;;;1.63;1.30;;;-3.10;99.90;;;;;;5023647;28;20146;-76
2023/01/17 08:10:36;;;;;;;1.88;1.33;;;-3.10;99.90;;;;;;5005053;28;20192;-76
2023/01/17 08:13:02;;;;;;;2.67;1.33;;;-3.00;99.90;;;;;;5006281;28;20561;-76
2023/01/17 08:15:29;;;;;;;3.15;2.15;;;-3.00;99.90;;;;;;5014102;28;20084;-76
2023/01/17 08:17:57;;;;;;;2.33;1.65;;;-3.00;99.90;;;;;;5016694;28;20063;-75
2023/01/17 08:20:24;;;;;;;2.25;1.50;;;-3.00;99.90;;;;;;5013028;28;20207;-75
2023/01/17 08:22:56;;;;;;;2.25;1.75;;;-2.90;99.90;;;;;;5011833;28;20053;-75
2023/01/17 08:25:23;;;;;;;2.63;1.85;;;-2.90;99.90;;;;;;5009505;28;20049;-75
2023/01/17 08:27:53;;;;;;;2.10;1.60;;;-2.90;99.90;;;;;;4995776;28;20448;-76
2023/01/17 08:30:20;;;;;;;1.83;1.38;;;-2.90;99.90;;;;;;5010127;28;20544;-76
2023/01/17 08:32:47;;;;;;;1.95;1.35;;;-3.00;99.90;;;;;;5009708;28;20095;-75
2023/01/17 08:35:14;;;;;;;1.27;1.13;;;-3.00;99.90;;;;;;5011646;28;20513;-76
2023/01/17 08:37:41;;;;;;;2.75;1.60;;;-3.00;99.90;;;;;;4995560;28;20242;-76
2023/01/17 08:40:09;;;;;;;2.22;1.48;;;-3.00;99.90;;;;;;4994736;28;20045;-76
2023/01/17 08:42:38;;;;;;;2.00;1.52;;;-2.80;99.90;;;;;;5013434;28;20372;-77
2023/01/17 08:45:06;;;;;;;2.03;1.23;;;-2.70;99.90;;;;;;4993831;28;20085;-76
2023/01/17 08:47:33;;;;;;;2.17;1.30;;;-2.70;99.90;;;;;;4996146;28;20053;-75
2023/01/17 08:50:00;;;;;;;2.00;1.33;;;-2.60;99.90;;;;;;4997100;28;20153;-76
2023/01/17 08:52:27;;;;;;;2.20;1.50;;;-2.60;99.90;;;;;;4979206;28;20061;-76
2023/01/17 08:54:54;;;;;;;2.33;1.52;;;-2.50;99.90;;;;;;4980478;28;20685;-76
2023/01/17 08:57:21;;;;;;;2.05;1.33;;;-2.50;99.90;;;;;;4998612;28;20093;-76
2023/01/17 08:59:49;;;;;;;1.85;1.30;;;-2.40;99.90;;;;;;5006363;28;20145;-76
2023/01/17 09:02:16;;;;;;;2.08;1.45;;;-2.40;99.90;;;;;;4997869;28;20060;-76
2023/01/17 09:04:47;;;;;;;1.75;1.50;;;-2.40;99.90;;;;;;4996944;28;20386;-76
2023/01/17 09:07:15;;;;;;;2.20;1.50;;;-2.30;99.90;;;;;;4995642;28;20153;-76
2023/01/17 09:09:41;;;;;;;1.90;1.33;;;-2.30;99.90;;;;;;5003646;28;20108;-77
2023/01/17 09:12:08;;;;;;;2.33;1.40;;;-2.20;99.90;;;;;;5006080;28;20443;-76
2023/01/17 09:14:36;;;;;;;2.30;1.52;;;-2.10;99.90;;;;;;4998121;28;20391;-76
2023/01/17 09:17:07;;;;;;;2.22;1.42;;;-2.10;99.90;;;;;;4986230;28;20060;-77
2023/01/17 09:19:34;;;;;;;1.75;1.10;;;-2.10;99.90;;;;;;5001378;28;20168;-77
2023/01/17 09:22:03;;;;;;;2.13;1.30;;;-2.00;99.90;;;;;;4998966;28;20053;-77
2023/01/17 09:24:31;;;;;;;1.90;1.38;;;-2.00;99.90;;;;;;5015838;28;20104;-77
2023/01/17 09:26:58;;;;;;;1.42;1.25;;;-1.90;99.90;;;;;;5015235;28;20528;-77
2023/01/17 09:29:25;;;;;;;3.53;1.50;;;-1.90;99.90;;;;;;5017097;28;20045;-77
2023/01/17 09:31:52;;;;;;;1.83;1.33;;;-1.80;99.90;;;;;;4992757;28;20477;-77
2023/01/17 09:34:19;;;;;;;2.03;1.60;;;-1.70;99.90;;;;;;4983314;28;20038;-77
2023/01/17 09:36:46;;;;;;;2.22;1.20;;;-1.70;99.90;;;;;;5000966;28;20049;-77
2023/01/17 09:39:14;;;;;;;2.00;1.35;;;-1.60;99.90;;;;;;4997847;28;20057;-78
2023/01/17 09:42:16;;;;;;;2.33;1.58;;;-1.50;99.90;;;;;;4998701;28;20384;-84
2023/01/17 09:44:46;;;;;;;1.75;1.27;;;-1.40;99.90;;;;;;5014565;28;20053;-78
2023/01/17 09:47:16;;;;;;;1.98;1.48;;;-1.40;99.90;;;;;;5000078;28;20519;-77
2023/01/17 09:49:44;;;;;;;2.53;1.60;;;-1.40;99.90;;;;;;5016394;28;20084;-78
2023/01/17 09:52:15;;;;;;;2.17;1.27;;;-1.30;99.90;;;;;;4984915;28;20760;-77
2023/01/17 09:54:42;;;;;;;1.17;0.95;;;-1.30;99.90;;;;;;5000445;28;20053;-77
2023/01/17 09:57:45;;;;;;;1.92;1.25;;;-1.30;99.90;;;;;;4966029;28;20496;-78
2023/01/17 10:00:31;;;;;;;2.20;1.50;;;-1.20;99.90;;;;;;5013119;28;20045;-77
2023/01/17 10:03:00;;;;;;;2.17;1.23;;;-1.20;99.90;;;;;;5018510;28;20106;-77
2023/01/17 10:05:35;;;;;;;1.48;1.17;;;-1.20;99.90;;;;;;5021958;28;20440;-77
2023/01/17 10:08:38;;;;;;;2.45;1.48;;;-1.10;99.90;;;;;;5007591;28;20055;-76
2023/01/17 10:11:17;;;;;;;2.03;1.33;;;-1.00;99.90;;;;;;5023795;28;20678;-78
2023/01/17 10:14:19;;;;;;;1.35;1.13;;;-0.90;99.90;;;;;;5024841;28;20064;-78
2023/01/17 10:16:48;;;;;;;2.15;1.40;;;-0.90;99.90;;;;;;4957522;28;20245;-78
2023/01/17 10:19:27;;;;;;;1.40;1.05;;;-0.90;99.90;;;;;;5023444;28;20057;-78
2023/01/17 10:22:06;;;;;;;1.23;0.95;;;-0.90;99.90;;;;;;5022475;28;20497;-78
2023/01/17 10:24:54;;;;;;;1.80;1.00;;;-0.80;99.90;;;;;;5019772;28;20132;-77
2023/01/17 10:27:49;;;;;;;1.80;1.10;;;-0.80;99.90;;;;;;5020843;28;20049;-78
2023/01/17 10:30:22;;;;;;;1.08;0.63;;;-0.70;99.90;;;;;;5005367;28;20064;-78
2023/01/17 10:32:49;;;;;;;1.95;1.00;;;-0.60;99.90;;;;;;5023782;28;20412;-78
2023/01/17 10:35:25;;;;;;;1.42;1.00;;;-0.50;99.90;;;;;;5023161;28;20115;-78
2023/01/17 10:37:55;;;;;;;1.08;0.90;;;-0.50;99.90;;;;;;5008265;28;20184;-78
2023/01/17 10:40:33;;;;;;;1.30;0.90;;;-0.50;99.90;;;;;;5007376;28;20455;-75
2023/01/17 10:43:26;;;;;;;1.38;0.98;;;-0.40;99.90;;;;;;5023285;28;20045;-78
2023/01/17 10:45:54;;;;;;;1.52;1.10;;;-0.40;99.90;;;;;;5008896;28;20088;-75
2023/01/17 10:48:21;;;;;;;2.38;1.27;;;-0.40;99.90;;;;;;5006976;28;20057;-76
2023/01/17 10:50:59;;;;;;;1.40;1.02;;;-0.30;99.90;;;;;;5024352;28;20057;-76
2023/01/17 10:53:37;;;;;;;2.03;1.15;;;-0.20;99.90;;;;;;5022580;28;20080;-78
2023/01/17 10:56:04;;;;;;;1.67;1.00;;;-0.10;99.90;;;;;;4991688;28;20053;-78
2023/01/17 10:58:31;;;;;;;1.63;1.00;;;0.00;99.90;;;;;;5006868;28;20049;-78
2023/01/17 11:01:00;;;;;;;1.38;1.08;;;0.10;99.90;;;;;;5024169;28;20188;-78
2023/01/17 11:03:27;;;;;;;1.13;1.02;;;0.10;99.90;;;;;;5007038;28;20535;-75
2023/01/17 11:06:17;;;;;;;2.10;1.55;;;0.10;99.90;;;;;;5006331;28;20069;-78
2023/01/17 11:08:55;;;;;;;1.73;1.30;;;0.20;99.90;;;;;;5012758;28;20137;-78
2023/01/17 11:11:29;;;;;;;2.13;1.73;;;0.30;99.90;;;;;;4990365;28;20049;-75
2023/01/17 11:14:17;;;;;;;2.47;1.48;;;0.30;99.90;;;;;;5006823;28;20049;-76
2023/01/17 11:16:45;;;;;;;2.03;1.35;;;0.40;99.90;;;;;;5019837;28;20511;-76
2023/01/17 11:19:20;;;;;;;3.33;1.35;;;0.40;99.90;;;;;;4996509;28;20085;-76
2023/01/17 11:21:52;;;;;;;2.13;1.38;;;0.40;99.90;;;;;;5004477;28;20057;-77
2023/01/17 11:24:23;;;;;;;2.45;1.63;;;0.40;99.90;;;;;;5014301;28;20056;-76
2023/01/17 11:26:50;;;;;;;1.95;1.20;;;0.40;99.90;;;;;;5001530;28;20611;-76
2023/01/17 11:29:23;;;;;;;2.38;1.40;;;0.40;99.90;;;;;;5020144;28;20126;-76
2023/01/17 11:31:49;;;;;;;3.38;1.60;;;0.50;99.90;;;;;;5019097;28;20053;-76
2023/01/17 11:34:17;;;;;;;2.95;1.95;;;0.50;99.90;;;;;;5021843;28;20192;-77
2023/01/17 11:36:44;;;;;;;2.45;1.50;;;0.60;99.90;;;;;;5022428;28;20095;-76
2023/01/17 11:39:17;;;;;;;2.80;1.70;;;0.60;99.90;;;;;;5005313;28;20060;-76
2023/01/17 11:41:46;;;;;;;2.60;1.73;;;0.70;99.90;;;;;;5021191;28;20136;-76
2023/01/17 11:44:26;;;;;;;3.80;1.75;;;0.80;99.90;;;;;;5002927;28;20128;-77
2023/01/17 11:47:12;;;;;;;2.83;1.65;;;0.90;99.90;;;;;;5021046;28;20084;-76
2023/01/17 11:49:46;;;;;;;2.42;1.80;;;1.10;99.90;;;;;;5021274;28;20049;-76
2023/01/17 11:52:24;;;;;;;2.05;1.42;;;1.20;99.90;;;;;;5003998;28;20504;-76
2023/01/17 11:54:52;;;;;;;2.38;1.75;;;1.30;99.90;;;;;;5019663;28;20045;-76
2023/01/17 11:57:22;;;;;;;3.30;1.73;;;1.40;99.90;;;;;;4987176;28;20455;-76
2023/01/17 11:59:51;;;;;;;2.72;2.05;;;1.60;99.90;;;;;;5018239;28;20064;-76
2023/01/17 12:02:59;;;;;;;2.47;1.85;;;1.70;99.90;;;;;;4989942;28;20129;-76
2023/01/17 12:06:00;;;;;;;2.70;1.90;;;1.80;99.90;;;;;;5021725;28;20065;-76
2023/01/17 12:09:02;;;;;;;2.85;2.00;;;1.90;99.90;;;;;;5022976;28;20382;-76
2023/01/17 12:13:59;;;;;;;2.22;1.60;;;2.00;99.90;;;;;;4939748;28;20050;-76
2023/01/17 12:14:43;;;;;;;2.75;1.70;;;2.10;99.90;;;;;;5009992;28;20159;-77
2023/01/17 12:17:10;;;;;;;3.00;1.95;;;2.10;99.90;;;;;;5006186;28;20172;-77
2023/01/17 12:19:44;;;;;;;2.55;1.70;;;2.20;99.90;;;;;;5020970;28;20125;-77
2023/01/17 12:22:17;;;;;;;3.15;1.80;;;2.20;99.90;;;;;;5023471;28;20163;-76
2023/01/17 12:25:04;;;;;;;2.50;1.90;;;2.30;99.90;;;;;;5019252;28;20111;-76
2023/01/17 12:27:47;;;;;;;2.83;2.03;;;2.30;99.90;;;;;;5004134;28;20293;-76
2023/01/17 12:30:42;;;;;;;3.00;1.95;;;2.30;99.90;;;;;;5006033;28;20100;-76
2023/01/17 12:33:29;;;;;;;2.63;1.70;;;2.40;99.90;;;;;;5021296;28;20492;-76
2023/01/17 12:36:16;;;;;;;2.10;1.30;;;2.50;99.90;;;;;;5003015;28;20211;-77
2023/01/17 12:38:44;;;;;;;1.92;1.50;;;2.50;99.90;;;;;;5004449;28;20090;-76
2023/01/17 12:41:25;;;;;;;2.65;1.75;;;2.60;99.90;;;;;;5004294;28;20049;-77
2023/01/17 12:43:59;;;;;;;2.15;1.40;;;2.60;99.90;;;;;;5005453;28;20061;-77
2023/01/17 12:46:37;;;;;;;3.28;1.48;;;2.70;99.90;;;;;;4989029;28;20135;-76
2023/01/17 12:49:24;;;;;;;2.25;1.50;;;2.70;99.90;;;;;;5020652;28;20053;-77
2023/01/17 12:52:03;;;;;;;1.67;1.13;;;2.80;99.90;;;;;;5024668;28;20455;-76
2023/01/17 12:54:44;;;;;;;2.67;1.88;;;2.80;99.90;;;;;;4993645;28;20396;-77
2023/01/17 12:57:22;;;;;;;3.92;1.85;;;2.70;99.90;;;;;;5009188;28;20409;-77
2023/01/17 13:00:06;;;;;;;2.10;1.63;;;2.80;99.90;;;;;;5025150;28;20419;-77
2023/01/17 13:02:57;;;;;;;2.25;1.65;;;2.90;99.90;;;;;;4988756;28;20308;-77
2023/01/17 13:05:23;;;;;;;2.33;1.73;;;2.90;99.90;;;;;;5001361;28;20119;-76
2023/01/17 13:08:28;;;;;;;2.15;1.65;;;2.90;99.90;;;;;;5023528;28;20115;-77
2023/01/17 13:11:03;;;;;;;2.78;2.30;;;3.00;99.90;;;;;;5016240;28;20446;-81
2023/01/17 13:13:30;;;;;;;2.67;1.83;;;3.00;99.90;;;;;;5019520;28;20167;-76
2023/01/17 13:16:16;;;;;;;2.42;1.80;;;3.10;99.90;;;;;;5003647;28;20472;-76
2023/01/17 13:18:47;;;;;;;2.33;1.60;;;3.20;99.90;;;;;;5003416;28;20053;-77
2023/01/17 13:21:14;;;;;;;2.17;1.65;;;3.40;99.90;;;;;;4997509;28;20056;-76
2023/01/17 13:23:47;;;;;;;1.90;1.55;;;3.50;99.90;;;;;;5015999;28;20112;-77
2023/01/17 13:26:31;;;;;;;1.75;1.40;;;3.60;99.90;;;;;;5006680;28;20476;-74
2023/01/17 13:29:20;;;;;;;4.57;1.80;;;3.70;99.90;;;;;;4992608;28;20144;-74
2023/01/17 13:31:50;;;;;;;4.18;2.45;;;3.90;99.90;;;;;;5023966;28;20045;-74
2023/01/17 13:34:26;;;;;;;3.53;2.35;;;3.80;99.90;;;;;;5022649;28;20152;-74
2023/01/17 13:37:10;;;;;;;4.05;2.55;;;3.80;99.90;;;;;;5021358;28;20077;-74
2023/01/17 13:39:56;;;;;;;;;;;3.80;99.90;;;;;;5018940;28;20057;-74
2023/01/17 13:42:24;;;;;;;3.35;2.45;;;3.70;99.90;;;;;;5020546;28;19925;-74
2023/01/17 13:44:51;;;;;;;4.35;2.72;;;3.60;99.90;;;;;;5011786;28;20352;-74
2023/01/17 13:47:17;;;;;;;6.53;3.65;;;3.50;99.90;;;;;;5003103;28;20053;-75
2023/01/17 13:49:49;;;;;;;4.72;3.55;;;3.40;99.90;;;;;;5024078;28;20131;-74
2023/01/17 13:52:19;;;;;;;5.40;3.15;;;3.40;99.90;;;;;;5007836;28;20057;-74
2023/01/17 13:54:49;;;;;;;3.58;3.25;;;3.40;99.90;;;;;;5024066;28;20049;-74
2023/01/17 13:57:22;;;;;;;4.80;3.22;;;3.50;99.90;;;;;;5024213;28;20087;-74
2023/01/17 13:59:49;;;;;;;3.50;2.40;;;3.60;99.90;;;;;;5023367;28;20057;-73
2023/01/17 14:02:31;;;;;;;4.88;3.58;;;3.70;99.90;;;;;;5005023;28;20337;-74
2023/01/17 14:05:08;;;;;;;3.97;2.80;;;3.70;99.90;;;;;;5015332;28;20196;-74
2023/01/17 14:07:53;;;;;;;3.28;2.40;;;3.70;99.90;;;;;;5018030;28;20107;-74
2023/01/17 14:10:36;;;;;;;2.92;1.98;;;3.70;99.90;;;;;;5008106;28;20048;-74
2023/01/17 14:13:04;;;;;;;4.07;2.65;;;3.70;99.90;;;;;;5012178;28;20284;-74
2023/01/17 14:15:32;;;;;;;3.42;2.25;;;3.70;99.90;;;;;;4998776;28;20107;-74
2023/01/17 14:18:03;;;;;;;3.55;2.35;;;3.70;99.90;;;;;;5015891;28;20495;-73
2023/01/17 14:20:37;;;;;;;3.60;2.25;;;3.70;99.90;;;;;;5015382;28;20138;-74
2023/01/17 14:23:23;;;;;;;3.28;2.47;;;3.70;99.90;;;;;;5015511;28;20057;-74
2023/01/17 14:25:49;;;;;;;3.60;2.30;;;3.60;99.90;;;;;;4996085;28;20045;-73
2023/01/17 14:28:28;;;;;;;4.55;3.05;;;3.50;99.90;;;;;;5009264;28;20181;-73
2023/01/17 14:30:55;;;;;;;4.35;2.80;;;3.50;99.90;;;;;;5012257;28;20128;-73